createdAt,value
2023-05-11T00:02:16.627Z,43.95
2023-05-11T00:05:24.913Z,37.43
2023-05-11T00:08:31.782Z,42.99
2023-05-11T00:11:37.705Z,39.51
2023-05-11T00:14:48.274Z,40.09
2023-05-11T00:17:54.428Z,43.70
2023-05-11T00:21:01.550Z,41.75
2023-05-11T00:24:07.816Z,38.96
2023-05-11T00:27:14.605Z,39.91
2023-05-11T00:30:23.932Z,36.19
2023-05-11T00:33:30.990Z,39.83
2023-05-11T00:36:41.277Z,34.90
2023-05-11T00:39:48.589Z,37.37
2023-05-11T00:42:54.658Z,38.57
2023-05-11T00:46:05.920Z,43.18
2023-05-11T00:49:12.698Z,36.30
2023-05-11T00:52:21.623Z,33.71
2023-05-11T00:55:31.818Z,36.19
2023-05-11T00:58:39.285Z,43.00
2023-05-11T01:01:48.065Z,42.33
2023-05-11T01:04:55.120Z,39.66
2023-05-11T01:08:12.299Z,32.33
2023-05-11T01:11:31.359Z,37.41
2023-05-11T01:14:45.179Z,34.57
2023-05-11T01:18:08.064Z,33.98
2023-05-11T01:21:19.722Z,34.07
2023-05-11T01:24:53.822Z,38.17
2023-05-11T01:28:29.072Z,39.47
2023-05-11T01:31:45.581Z,37.23
2023-05-11T01:35:06.549Z,36.64
2023-05-11T01:38:17.848Z,40.22
2023-05-11T01:41:29.740Z,46.74
2023-05-11T01:44:40.559Z,47.50
2023-05-11T01:47:55.812Z,48.18
2023-05-11T01:51:08.997Z,43.31
2023-05-11T01:54:17.711Z,49.35
2023-05-11T01:57:27.105Z,41.41
2023-05-11T02:00:34.909Z,38.79
2023-05-11T02:03:50.077Z,35.49
2023-05-11T02:07:03.186Z,37.61
2023-05-11T02:10:12.848Z,33.96
2023-05-11T02:13:24.383Z,33.10
2023-05-11T02:16:36.004Z,37.60
2023-05-11T02:19:50.376Z,39.27
2023-05-11T02:23:00.012Z,31.72
2023-05-11T02:26:11.788Z,33.65
2023-05-11T02:29:18.381Z,28.98
2023-05-11T02:32:30.317Z,32.05
2023-05-11T02:35:47.019Z,30.57
2023-05-11T02:39:05.923Z,36.50
2023-05-11T02:42:21.695Z,34.38
2023-05-11T02:45:40.225Z,30.31
2023-05-11T02:48:56.313Z,30.85
2023-05-11T02:52:13.049Z,38.71
2023-05-11T02:55:27.437Z,22.13
2023-05-11T02:58:35.010Z,32.83
2023-05-11T03:01:58.657Z,31.12
2023-05-11T03:05:11.569Z,38.82
2023-05-11T03:08:20.378Z,31.79
2023-05-11T03:11:31.097Z,38.08
2023-05-11T03:14:40.078Z,38.35
2023-05-11T03:17:49.933Z,34.86
2023-05-11T03:20:56.487Z,31.79
2023-05-11T03:24:09.696Z,33.92
2023-05-11T03:27:17.263Z,31.85
2023-05-11T03:30:28.603Z,34.28
2023-05-11T03:33:36.611Z,33.55
2023-05-11T03:36:52.338Z,36.33
2023-05-11T03:40:06.977Z,34.47
2023-05-11T03:43:26.054Z,33.76
2023-05-11T03:46:37.930Z,24.22
2023-05-11T03:49:48.411Z,36.63
2023-05-11T03:52:56.270Z,40.27
2023-05-11T03:56:07.672Z,39.03
2023-05-11T03:59:19.338Z,34.96
2023-05-11T04:02:29.581Z,38.25
2023-05-11T04:05:36.396Z,36.03
2023-05-11T04:08:46.645Z,32.41
2023-05-11T04:11:55.575Z,37.19
2023-05-11T04:15:02.569Z,37.71
2023-05-11T04:18:08.727Z,34.37
2023-05-11T04:21:15.772Z,51.65
2023-05-11T04:24:21.723Z,24.87
2023-05-11T04:27:31.678Z,34.49
2023-05-11T04:30:37.762Z,34.02
2023-05-11T04:33:47.735Z,40.36
2023-05-11T04:36:56.988Z,111.88
2023-05-11T04:40:04.716Z,29.02
2023-05-11T04:43:19.812Z,30.28
2023-05-11T04:46:27.279Z,34.44
2023-05-11T04:49:33.598Z,32.51
2023-05-11T04:52:41.113Z,34.94
2023-05-11T04:55:47.379Z,35.39
2023-05-11T04:58:57.301Z,36.87
2023-05-11T05:02:07.025Z,30.74
2023-05-11T05:05:13.956Z,28.85
2023-05-11T05:08:24.246Z,28.53
2023-05-11T05:11:31.110Z,28.77
2023-05-11T05:14:46.026Z,26.01
2023-05-11T05:17:53.234Z,23.45
2023-05-11T05:21:00.398Z,21.35
2023-05-11T05:24:11.479Z,23.85
2023-05-11T05:27:18.109Z,23.59
2023-05-11T05:30:27.808Z,26.72
2023-05-11T05:33:34.166Z,30.65
2023-05-11T05:36:41.067Z,27.18
2023-05-11T05:39:48.411Z,24.57
2023-05-11T05:42:56.064Z,30.83
2023-05-11T05:46:06.432Z,33.06
2023-05-11T05:49:13.687Z,36.36
2023-05-11T05:52:20.160Z,36.23
2023-05-11T05:55:28.967Z,41.28
2023-05-11T05:58:43.796Z,35.78
2023-05-11T06:01:56.378Z,35.98
2023-05-11T06:05:10.589Z,28.53
2023-05-11T06:08:18.204Z,32.73
2023-05-11T06:11:24.879Z,30.16
2023-05-11T06:14:32.201Z,29.03
2023-05-11T06:17:42.270Z,32.24
2023-05-11T06:20:51.183Z,31.11
2023-05-11T06:23:57.848Z,28.23
2023-05-11T06:27:09.453Z,28.75
2023-05-11T06:30:16.892Z,25.80
2023-05-11T06:33:35.882Z,26.35
2023-05-11T06:36:44.656Z,26.38
2023-05-11T06:39:51.754Z,27.08
2023-05-11T06:42:58.002Z,25.36
2023-05-11T06:46:21.320Z,24.08
2023-05-11T06:49:29.899Z,26.54
2023-05-11T06:52:36.843Z,27.60
2023-05-11T06:55:43.099Z,24.01
2023-05-11T06:58:49.924Z,23.97
2023-05-11T07:01:56.339Z,21.89
2023-05-11T07:05:06.020Z,26.09
2023-05-11T07:08:12.049Z,23.04
2023-05-11T07:11:19.322Z,25.58
2023-05-11T07:14:25.382Z,27.14
2023-05-11T07:17:32.235Z,24.68
2023-05-11T07:20:41.287Z,25.29
2023-05-11T07:23:48.166Z,24.84
2023-05-11T07:26:54.240Z,20.85
2023-05-11T07:30:01.098Z,22.37
2023-05-11T07:33:27.290Z,18.73
2023-05-11T07:36:38.305Z,21.51
2023-05-11T07:39:44.279Z,20.02
2023-05-11T07:42:51.332Z,21.34
2023-05-11T07:45:57.832Z,18.15
2023-05-11T07:49:15.779Z,22.86
2023-05-11T07:52:27.467Z,20.31
2023-05-11T07:55:34.270Z,25.65
2023-05-11T07:58:40.376Z,24.14
2023-05-11T08:01:47.357Z,25.33
2023-05-11T08:04:53.393Z,24.02
2023-05-11T08:08:02.776Z,24.40
2023-05-11T08:11:09.468Z,21.65
2023-05-11T08:14:23.990Z,23.81
2023-05-11T08:17:30.490Z,21.81
2023-05-11T08:20:37.426Z,23.48
2023-05-11T08:23:46.051Z,21.14
2023-05-11T08:26:52.888Z,19.93
2023-05-11T08:30:03.246Z,24.04
2023-05-11T08:33:29.049Z,21.46
2023-05-11T08:36:36.924Z,17.05
2023-05-11T08:39:48.069Z,22.19
2023-05-11T08:43:08.795Z,23.76
2023-05-11T08:46:28.018Z,21.46
2023-05-11T08:49:36.540Z,18.13
2023-05-11T08:52:44.465Z,22.53
2023-05-11T08:55:54.907Z,20.24
2023-05-11T08:59:03.117Z,22.27
2023-05-11T09:02:14.948Z,18.19
2023-05-11T09:05:23.450Z,22.81
2023-05-11T09:08:35.459Z,18.69
2023-05-11T09:11:45.480Z,19.32
2023-05-11T09:15:01.929Z,19.49
2023-05-11T09:18:11.267Z,16.94
2023-05-11T09:21:17.918Z,17.22
2023-05-11T09:24:25.523Z,24.16
2023-05-11T09:27:41.626Z,18.13
2023-05-11T09:30:49.086Z,21.10
2023-05-11T09:34:19.484Z,19.92
2023-05-11T09:37:26.318Z,19.36
2023-05-11T09:40:35.032Z,18.99
2023-05-11T09:43:44.779Z,22.06
2023-05-11T09:46:50.850Z,22.39
2023-05-11T09:49:57.744Z,21.55
2023-05-11T09:53:05.069Z,18.83
2023-05-11T09:56:12.901Z,15.18
2023-05-11T09:59:42.024Z,21.43
2023-05-11T10:02:49.323Z,20.50
2023-05-11T10:06:04.627Z,21.28
2023-05-11T10:09:15.746Z,19.34
2023-05-11T10:12:28.092Z,21.47
2023-05-11T10:15:39.347Z,18.33
2023-05-11T10:18:46.528Z,16.25
2023-05-11T10:21:55.149Z,18.50
2023-05-11T10:25:02.995Z,22.77
2023-05-11T10:28:10.091Z,23.49
2023-05-11T10:31:24.333Z,19.60
2023-05-11T10:34:32.140Z,20.20
2023-05-11T10:37:39.288Z,17.90
2023-05-11T10:40:51.950Z,22.00
2023-05-11T10:44:28.647Z,17.10
2023-05-11T10:48:17.774Z,16.09
2023-05-11T10:51:49.737Z,20.88
2023-05-11T10:55:17.235Z,20.77
2023-05-11T10:59:00.012Z,21.65
2023-05-11T11:02:26.690Z,19.79
2023-05-11T11:05:46.627Z,22.52
2023-05-11T11:09:02.077Z,18.73
2023-05-11T11:12:16.930Z,17.38
2023-05-11T11:15:24.335Z,22.90
2023-05-11T11:18:33.705Z,20.20
2023-05-11T11:21:46.597Z,25.09
2023-05-11T11:24:52.693Z,22.09
2023-05-11T11:28:05.143Z,24.48
2023-05-11T11:31:33.783Z,18.31
2023-05-11T11:34:40.618Z,20.85
2023-05-11T11:38:07.176Z,17.67
2023-05-11T11:41:14.088Z,20.88
2023-05-11T11:44:26.565Z,18.29
2023-05-11T11:47:33.504Z,23.94
2023-05-11T11:50:40.353Z,22.92
2023-05-11T11:54:11.232Z,26.61
2023-05-11T11:57:51.612Z,29.61
2023-05-11T12:00:59.816Z,25.41
2023-05-11T12:04:43.689Z,24.12
2023-05-11T12:07:54.825Z,21.38
2023-05-11T12:11:04.993Z,23.64
2023-05-11T12:14:16.590Z,24.49
2023-05-11T12:17:34.979Z,20.06
2023-05-11T12:20:41.785Z,19.81
2023-05-11T12:23:56.520Z,22.63
2023-05-11T12:27:12.622Z,26.52
2023-05-11T12:30:30.296Z,28.51
2023-05-11T12:33:37.203Z,35.34
2023-05-11T12:36:43.602Z,32.86
2023-05-11T12:39:56.628Z,30.87
2023-05-11T12:43:05.204Z,34.02
2023-05-11T12:46:12.563Z,33.45
2023-05-11T12:52:31.041Z,31.49
2023-05-11T12:55:45.217Z,26.32
2023-05-11T12:58:54.788Z,23.38
2023-05-11T13:02:20.562Z,19.82
2023-05-11T13:05:30.171Z,18.05
2023-05-11T13:08:36.631Z,14.85
2023-05-11T13:11:49.491Z,17.01
2023-05-11T13:15:15.054Z,13.60
2023-05-11T13:18:22.081Z,19.90
2023-05-11T13:21:29.658Z,18.39
2023-05-11T13:24:36.646Z,17.73
2023-05-11T13:27:42.811Z,16.80
2023-05-11T13:31:05.172Z,19.01
2023-05-11T13:34:12.133Z,15.15
2023-05-11T13:37:19.015Z,19.82
2023-05-11T13:40:25.194Z,23.82
2023-05-11T13:43:32.172Z,22.86
2023-05-11T13:46:41.079Z,18.19
2023-05-11T13:49:47.983Z,27.33
2023-05-11T13:52:54.872Z,27.91
2023-05-11T13:59:31.236Z,20.46
2023-05-11T14:02:40.953Z,27.03
2023-05-11T14:05:47.212Z,32.93
2023-05-11T14:08:56.747Z,36.92
2023-05-11T14:12:05.071Z,28.28
2023-05-11T14:15:13.939Z,25.32
2023-05-11T14:18:25.285Z,21.69
2023-05-11T14:21:34.881Z,23.24
2023-05-11T14:24:40.967Z,26.03
2023-05-11T14:27:49.691Z,23.13
2023-05-11T14:30:56.413Z,23.93
2023-05-11T14:34:06.539Z,24.01
2023-05-11T14:37:13.441Z,25.93
2023-05-11T14:40:20.710Z,33.98
2023-05-11T14:43:27.304Z,31.37
2023-05-11T14:46:34.729Z,37.07
2023-05-11T14:49:43.439Z,38.60
2023-05-11T14:52:50.260Z,28.24
2023-05-11T14:55:56.300Z,26.51
2023-05-11T14:59:06.196Z,30.77
2023-05-11T15:02:12.065Z,25.63
2023-05-11T15:05:21.672Z,28.32
2023-05-11T15:08:30.551Z,25.67
2023-05-11T15:11:37.792Z,26.25
2023-05-11T15:14:43.912Z,29.77
2023-05-11T15:17:50.876Z,32.12
2023-05-11T15:20:59.778Z,27.04
2023-05-11T15:24:11.040Z,22.69
2023-05-11T15:27:18.191Z,21.16
2023-05-11T15:30:25.156Z,20.86
2023-05-11T15:33:40.049Z,22.56
2023-05-11T15:36:55.543Z,18.15
2023-05-11T15:40:01.732Z,20.68
2023-05-11T15:43:08.466Z,21.97
2023-05-11T15:46:16.892Z,14.27
2023-05-11T15:49:32.835Z,12.64
2023-05-11T15:52:43.344Z,14.62
2023-05-11T15:55:51.303Z,25.71
2023-05-11T15:58:57.424Z,18.63
2023-05-11T16:02:05.112Z,21.58
2023-05-11T16:05:13.273Z,26.94
2023-05-11T16:08:22.886Z,30.02
2023-05-11T16:11:29.188Z,25.90
2023-05-11T16:14:37.827Z,29.13
2023-05-11T16:17:43.920Z,26.96
2023-05-11T16:20:53.575Z,33.60
2023-05-11T16:24:09.230Z,31.56
2023-05-11T16:27:20.329Z,29.91
2023-05-11T16:30:26.488Z,32.76
2023-05-11T16:33:33.446Z,33.16
2023-05-11T16:36:39.700Z,28.50
2023-05-11T16:39:49.149Z,25.29
2023-05-11T16:42:55.133Z,25.62
2023-05-11T16:46:02.719Z,28.64
2023-05-11T16:49:08.693Z,25.07
2023-05-11T16:52:15.480Z,28.48
2023-05-11T16:55:25.102Z,22.97
2023-05-11T16:58:31.882Z,25.47
2023-05-11T17:01:38.204Z,24.02
2023-05-11T17:04:44.974Z,33.30
2023-05-11T17:07:51.118Z,29.76
2023-05-11T17:11:00.676Z,30.07
2023-05-11T17:14:08.933Z,22.83
2023-05-11T17:17:15.715Z,29.02
2023-05-11T17:20:22.157Z,34.24
2023-05-11T17:23:29.070Z,38.77
2023-05-11T17:26:46.961Z,36.34
2023-05-11T17:29:55.033Z,33.48
2023-05-11T17:33:01.459Z,30.22
2023-05-11T17:36:28.254Z,36.21
2023-05-11T17:39:40.480Z,33.41
2023-05-11T17:42:50.367Z,32.08
2023-05-11T17:45:56.440Z,28.10
2023-05-11T17:49:06.839Z,26.26
2023-05-11T17:52:13.089Z,21.73
2023-05-11T17:55:21.573Z,26.18
2023-05-11T17:58:32.891Z,23.20
2023-05-11T18:01:39.907Z,26.96
2023-05-11T18:04:46.020Z,28.75
2023-05-11T18:07:52.881Z,30.98
2023-05-11T18:10:59.034Z,26.27
2023-05-11T18:14:08.897Z,24.92
2023-05-11T18:17:15.288Z,21.00
2023-05-11T18:20:23.303Z,24.89
2023-05-11T18:23:30.341Z,31.33
2023-05-11T18:26:45.139Z,34.46
2023-05-11T18:29:56.683Z,33.91
2023-05-11T18:33:03.792Z,38.52
2023-05-11T18:36:19.995Z,30.33
2023-05-11T18:39:26.865Z,32.76
2023-05-11T18:42:32.838Z,30.67
2023-05-11T18:45:43.422Z,31.90
2023-05-11T18:48:50.356Z,30.19
2023-05-11T18:51:57.459Z,35.21
2023-05-11T18:55:12.705Z,36.87
2023-05-11T18:58:20.871Z,36.43
2023-05-11T19:01:47.103Z,37.91
2023-05-11T19:04:54.701Z,40.59
2023-05-11T19:08:00.778Z,42.32
2023-05-11T19:11:10.834Z,45.73
2023-05-11T19:14:16.983Z,44.56
2023-05-11T19:17:26.695Z,48.24
2023-05-11T19:20:32.708Z,46.20
2023-05-11T19:23:39.484Z,48.40
2023-05-11T19:26:52.369Z,46.68
2023-05-11T19:30:12.551Z,40.80
2023-05-11T19:33:21.231Z,42.27
2023-05-11T19:36:43.546Z,39.23
2023-05-11T19:39:49.703Z,40.83
2023-05-11T19:42:56.664Z,37.77
2023-05-11T19:46:05.356Z,45.05
2023-05-11T19:49:16.663Z,41.87
2023-05-11T19:52:22.678Z,39.71
2023-05-11T19:55:29.878Z,44.64
2023-05-11T19:58:42.134Z,37.12
2023-05-11T20:01:51.640Z,35.09
2023-05-11T20:05:00.253Z,33.15
2023-05-11T20:08:08.455Z,30.89
2023-05-11T20:11:18.141Z,28.86
2023-05-11T20:14:26.542Z,29.43
2023-05-11T20:17:32.532Z,30.90
2023-05-11T20:20:42.034Z,33.76
2023-05-11T20:23:47.992Z,34.65
2023-05-11T20:26:55.255Z,36.28
2023-05-11T20:30:09.460Z,34.04
2023-05-11T20:36:29.670Z,27.38
2023-05-11T20:39:36.666Z,34.04
2023-05-11T20:42:49.337Z,30.10
2023-05-11T20:46:06.337Z,29.91
2023-05-11T20:49:30.902Z,29.50
2023-05-11T20:52:54.587Z,32.95
2023-05-11T20:56:02.624Z,33.06
2023-05-11T21:02:36.303Z,32.73
2023-05-11T21:05:43.187Z,41.28
2023-05-11T21:08:52.659Z,37.76
2023-05-11T21:11:59.647Z,41.31
2023-05-11T21:15:05.707Z,38.63
2023-05-11T21:18:12.753Z,37.16
2023-05-11T21:21:24.499Z,31.30
2023-05-11T21:24:34.477Z,40.18
2023-05-11T21:27:41.833Z,35.48
2023-05-11T21:30:48.687Z,36.75
2023-05-11T21:33:54.914Z,38.49
2023-05-11T21:37:02.330Z,36.77
2023-05-11T21:40:15.669Z,34.56
2023-05-11T21:43:22.905Z,37.69
2023-05-11T21:46:28.880Z,39.19
2023-05-11T21:49:37.036Z,37.19
2023-05-11T21:52:43.507Z,36.00
2023-05-11T21:55:54.115Z,38.04
2023-05-11T21:59:00.188Z,38.32
2023-05-11T22:02:16.309Z,36.48
2023-05-11T22:05:22.520Z,42.33
2023-05-11T22:08:29.523Z,38.87
2023-05-11T22:11:41.832Z,35.35
2023-05-11T22:14:48.583Z,36.76
2023-05-11T22:17:54.607Z,34.97
2023-05-11T22:21:01.477Z,39.41
2023-05-11T22:24:13.884Z,30.13
2023-05-11T22:27:23.544Z,36.64
2023-05-11T22:30:29.593Z,34.83
2023-05-11T22:33:36.397Z,39.98
2023-05-11T22:36:42.353Z,34.52
2023-05-11T22:39:49.117Z,32.07
2023-05-11T22:42:57.607Z,35.68
2023-05-11T22:46:17.490Z,40.23
2023-05-11T22:49:30.158Z,32.98
2023-05-11T22:52:37.017Z,39.46
2023-05-11T22:55:44.631Z,39.08
2023-05-11T22:58:56.277Z,37.48
2023-05-11T23:02:03.499Z,34.03
2023-05-11T23:05:11.859Z,39.87
2023-05-11T23:08:22.357Z,34.95
2023-05-11T23:11:29.482Z,31.01
2023-05-11T23:14:38.095Z,36.06
2023-05-11T23:17:44.927Z,38.44
2023-05-11T23:20:51.045Z,34.98
2023-05-11T23:23:57.928Z,38.94
2023-05-11T23:27:20.158Z,33.16
2023-05-11T23:30:29.742Z,38.51
2023-05-11T23:33:36.289Z,38.93
2023-05-11T23:36:43.314Z,38.50
2023-05-11T23:39:49.279Z,33.61
2023-05-11T23:42:56.098Z,37.64
2023-05-11T23:46:07.925Z,38.59
2023-05-11T23:49:14.851Z,39.35
2023-05-11T23:52:20.850Z,36.95
2023-05-11T23:55:27.702Z,36.93
2023-05-11T23:58:33.699Z,34.87
